Time;durP1;ratioP1;P1;durP2;ratioP2;P2;SDS_P1;SDS_P2;PMS_P1;PMS_P2;Temp;Humidity;BMP_temperature;BMP_pressure;BME280_temperature;BME280_humidity;BME280_pressure;Samples;Min_cycle;Max_cycle;Signal;HPM_P1;HPM_P2
2022/12/10 00:01:47;;;;;;;32.40;27.03;;;;;;;;;;5079304;28;20850;-77
2022/12/10 00:04:15;;;;;;;30.57;23.83;;;;;;;;;;5084709;28;20442;-77
2022/12/10 00:06:44;;;;;;;32.00;25.53;;;;;;;;;;5097250;28;20471;-76
2022/12/10 00:09:12;;;;;;;30.93;25.67;;;;;;;;;;5094271;28;20452;-76
2022/12/10 00:11:39;;;;;;;35.13;26.10;;;;;;;;;;5094194;28;20451;-75
2022/12/10 00:14:07;;;;;;;36.00;26.13;;;;;;;;;;5083720;28;20436;-76
2022/12/10 00:16:35;;;;;;;31.40;26.27;;;;;;;;;;5073552;28;20468;-77
2022/12/10 00:19:02;;;;;;;32.27;24.37;;;;;;;;;;5073382;28;20450;-76
2022/12/10 00:21:30;;;;;;;32.83;25.73;;;;;;;;;;5083289;28;20438;-74
2022/12/10 00:23:59;;;;;;;31.50;25.70;;;;;;;;;;5118678;28;20441;-75
2022/12/10 00:26:27;;;;;;;34.83;27.37;;;;;;;;;;5116813;28;20457;-75
2022/12/10 00:28:55;;;;;;;33.77;27.10;;;;;;;;;;5126917;28;20452;-76
2022/12/10 00:31:23;;;;;;;30.60;24.63;;;;;;;;;;5127930;28;20466;-76
2022/12/10 00:33:50;;;;;;;34.07;25.90;;;;;;;;;;5127499;28;20442;-76
2022/12/10 00:36:18;;;;;;;31.53;25.60;;;;;;;;;;5125993;28;20474;-76
2022/12/10 00:38:47;;;;;;;32.73;25.20;;;;;;;;;;5104473;28;20447;-76
2022/12/10 00:41:16;;;;;;;31.63;25.53;;;;;;;;;;5094309;28;20486;-77
2022/12/10 00:43:43;;;;;;;36.33;26.90;;;;;;;;;;5116304;28;20459;-76
2022/12/10 00:46:11;;;;;;;31.53;23.97;;;;;;;;;;5117963;28;20466;-76
2022/12/10 00:48:38;;;;;;;31.37;25.03;;;;;;;;;;5114225;28;20449;-77
2022/12/10 00:51:06;;;;;;;28.87;24.27;;;;;;;;;;5114872;28;20439;-75
2022/12/10 00:53:33;;;;;;;33.20;25.83;;;;;;;;;;5126680;28;20452;-76
2022/12/10 00:56:01;;;;;;;32.63;25.00;;;;;;;;;;5119574;28;20461;-77
2022/12/10 00:58:30;;;;;;;29.50;24.27;;;;;;;;;;5125578;28;20443;-76
2022/12/10 01:01:07;;;;;;;29.90;23.10;;;;;;;;;;5130039;28;20489;-76
2022/12/10 01:03:34;;;;;;;31.50;24.60;;;;;;;;;;5117816;28;20467;-75
2022/12/10 01:06:08;;;;;;;32.60;24.17;;;;;;;;;;5123742;28;20465;-77
2022/12/10 01:08:35;;;;;;;29.20;23.87;;;;;;;;;;5129947;28;20527;-76
2022/12/10 01:11:02;;;;;;;31.33;25.10;;;;;;;;;;5115756;28;20434;-76
2022/12/10 01:13:31;;;;;;;32.60;26.07;;;;;;;;;;5109775;28;20527;-76
2022/12/10 01:15:58;;;;;;;32.17;25.77;;;;;;;;;;5105116;28;20469;-74
2022/12/10 01:18:25;;;;;;;29.00;23.67;;;;;;;;;;5103149;28;20445;-75
2022/12/10 01:20:52;;;;;;;30.27;23.73;;;;;;;;;;5099334;28;20485;-75
2022/12/10 01:23:19;;;;;;;31.13;24.10;;;;;;;;;;5098502;28;20454;-74
2022/12/10 01:25:46;;;;;;;29.03;24.40;;;;;;;;;;5094854;28;20466;-75
2022/12/10 01:28:13;;;;;;;30.50;24.70;;;;;;;;;;5093184;28;20472;-75
2022/12/10 01:30:41;;;;;;;27.93;23.80;;;;;;;;;;5092637;28;20443;-76
2022/12/10 01:33:08;;;;;;;29.80;24.70;;;;;;;;;;5092128;28;20453;-75
2022/12/10 01:35:37;;;;;;;28.83;23.60;;;;;;;;;;5092487;28;20467;-76
2022/12/10 01:38:04;;;;;;;28.20;23.53;;;;;;;;;;5091060;28;20453;-75
2022/12/10 01:40:31;;;;;;;29.73;24.10;;;;;;;;;;5092034;28;20469;-77
2022/12/10 01:42:58;;;;;;;29.87;22.63;;;;;;;;;;5098364;28;20514;-76
2022/12/10 01:45:26;;;;;;;31.00;24.70;;;;;;;;;;5092176;28;20470;-77
2022/12/10 01:47:54;;;;;;;29.23;23.73;;;;;;;;;;5100208;28;20438;-75
2022/12/10 01:50:21;;;;;;;33.00;24.10;;;;;;;;;;5112555;28;20441;-75
2022/12/10 01:52:49;;;;;;;34.73;25.10;;;;;;;;;;5115104;28;20466;-75
2022/12/10 01:55:34;;;;;;;30.00;25.53;;;;;;;;;;5119238;28;20461;-75
2022/12/10 01:58:01;;;;;;;31.77;24.70;;;;;;;;;;5118654;28;20464;-75
2022/12/10 02:00:28;;;;;;;27.73;22.60;;;;;;;;;;5117962;28;20485;-76
2022/12/10 02:03:00;;;;;;;29.73;24.07;;;;;;;;;;5115297;28;20448;-75
2022/12/10 02:05:29;;;;;;;32.40;24.27;;;;;;;;;;5113530;28;20466;-76
2022/12/10 02:08:00;;;;;;;28.57;22.67;;;;;;;;;;5112719;28;20438;-76
2022/12/10 02:10:34;;;;;;;30.13;23.60;;;;;;;;;;5112235;28;20438;-77
2022/12/10 02:13:06;;;;;;;29.63;23.50;;;;;;;;;;5111585;28;20441;-75
2022/12/10 02:15:35;;;;;;;33.77;25.87;;;;;;;;;;5071830;28;20467;-75
2022/12/10 02:18:06;;;;;;;31.27;22.47;;;;;;;;;;5071415;28;20441;-75
2022/12/10 02:20:36;;;;;;;29.80;24.10;;;;;;;;;;5071013;28;20494;-74
2022/12/10 02:23:04;;;;;;;28.83;23.20;;;;;;;;;;5069555;28;20799;-76
2022/12/10 02:25:35;;;;;;;29.87;24.73;;;;;;;;;;5070814;28;20459;-75
2022/12/10 02:28:04;;;;;;;29.57;23.87;;;;;;;;;;5071218;28;20446;-75
2022/12/10 02:30:34;;;;;;;28.80;23.87;;;;;;;;;;5071055;28;20441;-76
2022/12/10 02:33:02;;;;;;;28.10;22.77;;;;;;;;;;5070496;28;20997;-76
2022/12/10 02:35:32;;;;;;;30.70;23.67;;;;;;;;;;5071420;28;20469;-76
2022/12/10 02:38:05;;;;;;;29.97;24.53;;;;;;;;;;5071083;28;20442;-75
2022/12/10 02:40:34;;;;;;;29.77;24.67;;;;;;;;;;5070868;28;20478;-76
2022/12/10 02:43:01;;;;;;;28.83;22.13;;;;;;;;;;5070352;28;20471;-77
2022/12/10 02:45:29;;;;;;;30.33;23.40;;;;;;;;;;5070652;28;20465;-76
2022/12/10 02:48:00;;;;;;;30.53;23.90;;;;;;;;;;5070672;28;20452;-75
2022/12/10 02:50:27;;;;;;;28.37;23.60;;;;;;;;;;5071158;28;20423;-76
2022/12/10 02:52:54;;;;;;;28.53;23.90;;;;;;;;;;5070175;28;20459;-75
2022/12/10 02:55:22;;;;;;;29.57;23.30;;;;;;;;;;5070638;28;20462;-75
2022/12/10 02:57:54;;;;;;;27.60;21.43;;;;;;;;;;5070647;28;20443;-75
2022/12/10 03:00:22;;;;;;;28.83;23.60;;;;;;;;;;5070479;28;20489;-75
2022/12/10 03:02:56;;;;;;;26.50;22.57;;;;;;;;;;5069979;28;20447;-75
2022/12/10 03:05:29;;;;;;;29.97;23.80;;;;;;;;;;5070673;28;20484;-76
2022/12/10 03:07:59;;;;;;;28.73;22.93;;;;;;;;;;5070616;28;20457;-76
2022/12/10 03:10:27;;;;;;;31.57;24.50;;;;;;;;;;5070423;28;20443;-74
2022/12/10 03:12:57;;;;;;;30.73;24.40;;;;;;;;;;5069816;28;20449;-75
2022/12/10 03:15:26;;;;;;;29.67;24.53;;;;;;;;;;5089123;28;20458;-75
2022/12/10 03:17:53;;;;;;;30.30;24.30;;;;;;;;;;5090628;28;20441;-76
2022/12/10 03:20:21;;;;;;;28.17;23.60;;;;;;;;;;5090431;28;20536;-75
2022/12/10 03:22:50;;;;;;;29.30;23.87;;;;;;;;;;5103330;28;20447;-75
2022/12/10 03:25:20;;;;;;;30.83;22.40;;;;;;;;;;5097891;28;20473;-76
2022/12/10 03:27:49;;;;;;;30.53;23.10;;;;;;;;;;5103652;28;20450;-76
2022/12/10 03:30:17;;;;;;;32.50;24.60;;;;;;;;;;5104142;28;20442;-76
2022/12/10 03:32:44;;;;;;;27.17;22.93;;;;;;;;;;5099675;28;21026;-76
2022/12/10 03:35:12;;;;;;;27.77;23.10;;;;;;;;;;5108425;28;20993;-75
2022/12/10 03:37:39;;;;;;;29.63;22.90;;;;;;;;;;5110344;28;20438;-76
2022/12/10 03:40:10;;;;;;;31.40;24.17;;;;;;;;;;5110556;28;20447;-77
2022/12/10 03:42:37;;;;;;;31.80;23.83;;;;;;;;;;5106606;28;20821;-76
2022/12/10 03:45:05;;;;;;;31.60;24.33;;;;;;;;;;5109471;28;20452;-76
2022/12/10 03:47:32;;;;;;;27.73;23.47;;;;;;;;;;5110082;28;20440;-76
2022/12/10 03:49:59;;;;;;;30.07;23.50;;;;;;;;;;5090577;28;20444;-75
2022/12/10 03:52:26;;;;;;;30.73;23.90;;;;;;;;;;5109789;28;20452;-76
2022/12/10 03:54:53;;;;;;;29.77;25.23;;;;;;;;;;5112096;28;21015;-75
2022/12/10 03:57:21;;;;;;;33.17;25.60;;;;;;;;;;5122264;28;20445;-74
2022/12/10 03:59:48;;;;;;;27.77;22.90;;;;;;;;;;5121322;28;20448;-75
2022/12/10 04:02:17;;;;;;;26.33;22.37;;;;;;;;;;5132539;28;20466;-76
2022/12/10 04:04:44;;;;;;;28.40;23.07;;;;;;;;;;5137193;28;20441;-76
2022/12/10 04:07:11;;;;;;;28.47;22.57;;;;;;;;;;5129203;28;20442;-76
2022/12/10 04:09:38;;;;;;;32.03;24.53;;;;;;;;;;5115810;28;20441;-76
2022/12/10 04:12:05;;;;;;;29.20;23.37;;;;;;;;;;5115475;28;20448;-75
2022/12/10 04:17:19;;;;;;;32.13;24.37;;;;;;;;;;5115620;28;20405;-75
2022/12/10 04:19:46;;;;;;;29.27;23.40;;;;;;;;;;5116220;28;20818;-75
2022/12/10 04:27:47;;;;;;;28.30;24.00;;;;;;;;;;5040184;28;20425;-75
2022/12/10 04:30:16;;;;;;;31.43;23.70;;;;;;;;;;5114535;28;20418;-76
2022/12/10 04:32:43;;;;;;;30.90;24.03;;;;;;;;;;5096164;28;20454;-77
2022/12/10 04:35:10;;;;;;;29.57;24.10;;;;;;;;;;5093658;28;20457;-76
2022/12/10 04:37:37;;;;;;;34.17;25.53;;;;;;;;;;5093442;28;20449;-77
2022/12/10 04:40:05;;;;;;;34.03;25.03;;;;;;;;;;5093205;28;20491;-76
2022/12/10 04:42:32;;;;;;;35.30;25.37;;;;;;;;;;5093099;28;21025;-76
2022/12/10 04:44:59;;;;;;;28.97;24.33;;;;;;;;;;5092857;28;20449;-75
2022/12/10 04:47:27;;;;;;;33.47;25.20;;;;;;;;;;5093894;28;20479;-76
2022/12/10 04:49:54;;;;;;;30.40;23.60;;;;;;;;;;5093540;28;20449;-75
2022/12/10 04:52:21;;;;;;;31.57;24.77;;;;;;;;;;5093196;28;20446;-75
2022/12/10 04:54:49;;;;;;;33.53;24.97;;;;;;;;;;5092922;28;20445;-76
2022/12/10 04:57:16;;;;;;;32.87;25.73;;;;;;;;;;5094704;28;20438;-75
2022/12/10 04:59:43;;;;;;;33.90;25.10;;;;;;;;;;5095322;28;20471;-76
2022/12/10 05:02:10;;;;;;;33.03;26.20;;;;;;;;;;5093951;28;20484;-75
2022/12/10 05:04:38;;;;;;;30.63;24.50;;;;;;;;;;5094608;28;20438;-75
2022/12/10 05:07:05;;;;;;;32.07;24.77;;;;;;;;;;5095425;28;20565;-76
2022/12/10 05:09:33;;;;;;;31.00;25.30;;;;;;;;;;5097317;28;20461;-75
2022/12/10 05:12:00;;;;;;;31.00;25.27;;;;;;;;;;5095032;28;20448;-77
2022/12/10 05:14:27;;;;;;;35.10;26.17;;;;;;;;;;5093637;28;20453;-76
2022/12/10 05:16:54;;;;;;;34.40;25.30;;;;;;;;;;5092499;28;20479;-76
2022/12/10 05:19:22;;;;;;;33.40;25.93;;;;;;;;;;5075416;28;20451;-76
2022/12/10 05:24:35;;;;;;;31.63;24.53;;;;;;;;;;5090239;28;20458;-76
2022/12/10 05:27:02;;;;;;;30.50;24.73;;;;;;;;;;5090307;28;20993;-76
2022/12/10 05:29:30;;;;;;;32.83;25.63;;;;;;;;;;5090593;28;20445;-75
2022/12/10 05:31:57;;;;;;;31.27;24.80;;;;;;;;;;5108841;28;20408;-77
2022/12/10 05:34:24;;;;;;;31.70;24.30;;;;;;;;;;5108650;28;20439;-77
2022/12/10 05:36:52;;;;;;;31.13;25.70;;;;;;;;;;5106299;28;20477;-75
2022/12/10 05:39:19;;;;;;;34.10;25.57;;;;;;;;;;5095547;28;20452;-75
2022/12/10 05:41:47;;;;;;;31.23;25.70;;;;;;;;;;5093692;28;20476;-77
2022/12/10 05:44:14;;;;;;;37.10;27.20;;;;;;;;;;5091652;28;20461;-76
2022/12/10 05:46:42;;;;;;;31.53;24.90;;;;;;;;;;5089988;28;20604;-76
2022/12/10 05:49:09;;;;;;;33.77;24.43;;;;;;;;;;5089439;28;20773;-77
2022/12/10 05:51:37;;;;;;;34.20;25.47;;;;;;;;;;5089586;28;20443;-76
2022/12/10 05:54:06;;;;;;;33.63;25.53;;;;;;;;;;5088774;28;20452;-77
2022/12/10 05:56:33;;;;;;;33.07;25.37;;;;;;;;;;5089654;28;20467;-77
2022/12/10 05:59:01;;;;;;;32.27;24.80;;;;;;;;;;5089364;28;20452;-75
2022/12/10 06:01:29;;;;;;;37.60;27.67;;;;;;;;;;5089531;28;20486;-75
2022/12/10 06:03:57;;;;;;;34.47;25.40;;;;;;;;;;5089134;28;20449;-75
2022/12/10 06:06:25;;;;;;;35.83;25.90;;;;;;;;;;5089480;28;20488;-75
2022/12/10 06:08:53;;;;;;;30.57;25.30;;;;;;;;;;5089504;28;20441;-76
2022/12/10 06:11:21;;;;;;;34.03;24.83;;;;;;;;;;5089334;28;20447;-77
2022/12/10 06:13:48;;;;;;;33.27;23.73;;;;;;;;;;5088268;28;20455;-76
2022/12/10 06:16:16;;;;;;;36.33;25.20;;;;;;;;;;5089534;28;20470;-75
2022/12/10 06:18:43;;;;;;;33.93;24.97;;;;;;;;;;5089164;28;20444;-75
2022/12/10 06:21:11;;;;;;;32.50;25.67;;;;;;;;;;5088852;28;21019;-76
2022/12/10 06:23:39;;;;;;;33.40;25.67;;;;;;;;;;5088736;28;20450;-75
2022/12/10 06:26:06;;;;;;;33.40;25.73;;;;;;;;;;5088845;28;20555;-75
2022/12/10 06:28:34;;;;;;;31.77;24.37;;;;;;;;;;5089248;28;20444;-75
2022/12/10 06:31:01;;;;;;;33.37;25.00;;;;;;;;;;5088765;28;20956;-76
2022/12/10 06:33:30;;;;;;;32.90;24.50;;;;;;;;;;5088458;28;20457;-77
2022/12/10 06:35:57;;;;;;;31.67;25.00;;;;;;;;;;5087572;28;20840;-75
2022/12/10 06:38:24;;;;;;;31.63;24.10;;;;;;;;;;5090479;28;20459;-77
2022/12/10 06:40:51;;;;;;;32.57;25.37;;;;;;;;;;5089595;28;20456;-77
2022/12/10 06:43:18;;;;;;;33.53;24.87;;;;;;;;;;5098247;28;20451;-75
2022/12/10 06:45:47;;;;;;;36.77;25.80;;;;;;;;;;5104941;28;20496;-76
2022/12/10 06:48:14;;;;;;;32.17;24.77;;;;;;;;;;5088940;28;20445;-76
2022/12/10 06:50:41;;;;;;;35.83;25.73;;;;;;;;;;5088591;28;20455;-76
2022/12/10 06:53:08;;;;;;;34.93;25.20;;;;;;;;;;5087575;28;20892;-77
2022/12/10 06:55:37;;;;;;;31.60;24.80;;;;;;;;;;5088571;28;20483;-76
2022/12/10 06:58:05;;;;;;;30.40;24.77;;;;;;;;;;5092490;28;20523;-79
2022/12/10 07:00:32;;;;;;;32.80;23.70;;;;;;;;;;5096316;28;20453;-77
2022/12/10 07:03:00;;;;;;;31.70;24.10;;;;;;;;;;5113218;28;20486;-75
2022/12/10 07:05:27;;;;;;;33.23;24.87;;;;;;;;;;5092120;28;20468;-76
2022/12/10 07:07:54;;;;;;;32.23;23.50;;;;;;;;;;5093109;28;20443;-75
2022/12/10 07:10:21;;;;;;;32.30;25.37;;;;;;;;;;5089866;28;20460;-77
2022/12/10 07:12:48;;;;;;;33.87;25.90;;;;;;;;;;5088574;28;20435;-77
2022/12/10 07:15:15;;;;;;;36.10;24.73;;;;;;;;;;5089315;28;20495;-76
2022/12/10 07:17:42;;;;;;;38.53;26.70;;;;;;;;;;5089005;28;20445;-76
2022/12/10 07:20:12;;;;;;;32.63;24.30;;;;;;;;;;5088277;28;20459;-74
2022/12/10 07:22:39;;;;;;;31.10;23.27;;;;;;;;;;5088672;28;20891;-75
2022/12/10 07:25:07;;;;;;;33.87;26.30;;;;;;;;;;5089115;28;20957;-76
2022/12/10 07:27:34;;;;;;;32.60;26.90;;;;;;;;;;5088958;28;20450;-75
2022/12/10 07:30:01;;;;;;;31.20;23.50;;;;;;;;;;5090071;28;20447;-77
2022/12/10 07:32:28;;;;;;;35.40;24.07;;;;;;;;;;5093863;28;20442;-75
2022/12/10 07:34:55;;;;;;;33.57;25.73;;;;;;;;;;5087762;28;20441;-75
2022/12/10 07:37:23;;;;;;;33.20;25.50;;;;;;;;;;5082356;28;20457;-75
2022/12/10 07:39:50;;;;;;;30.33;24.90;;;;;;;;;;5086794;28;20440;-76
2022/12/10 07:42:18;;;;;;;34.03;26.17;;;;;;;;;;5088367;28;20467;-76
2022/12/10 07:44:45;;;;;;;35.30;26.33;;;;;;;;;;5088502;28;20455;-75
2022/12/10 07:47:12;;;;;;;34.37;27.03;;;;;;;;;;5088530;28;20441;-78
2022/12/10 07:49:39;;;;;;;37.50;26.17;;;;;;;;;;5088494;28;20450;-76
2022/12/10 07:52:06;;;;;;;37.77;28.27;;;;;;;;;;5088595;28;20497;-75
2022/12/10 07:54:34;;;;;;;36.60;29.27;;;;;;;;;;5086937;28;20572;-75
2022/12/10 07:57:01;;;;;;;38.10;27.90;;;;;;;;;;5087475;28;20457;-75
2022/12/10 07:59:29;;;;;;;35.67;25.97;;;;;;;;;;5087541;28;20463;-76
2022/12/10 08:01:56;;;;;;;32.70;24.20;;;;;;;;;;5087999;28;20478;-78
2022/12/10 08:04:23;;;;;;;34.80;26.10;;;;;;;;;;5087161;28;20444;-77
2022/12/10 08:06:50;;;;;;;34.13;25.33;;;;;;;;;;5087535;28;20832;-77
2022/12/10 08:09:17;;;;;;;36.10;25.97;;;;;;;;;;5087878;28;20466;-77
2022/12/10 08:11:46;;;;;;;33.17;24.60;;;;;;;;;;5087995;28;20493;-76
2022/12/10 08:14:13;;;;;;;33.70;25.97;;;;;;;;;;5076693;28;20424;-78
2022/12/10 08:16:40;;;;;;;37.07;26.77;;;;;;;;;;5069668;28;20456;-74
2022/12/10 08:19:07;;;;;;;33.00;25.40;;;;;;;;;;5089245;28;20440;-78
2022/12/10 08:21:34;;;;;;;32.27;24.90;;;;;;;;;;5090972;28;20856;-77
2022/12/10 08:24:01;;;;;;;35.30;26.90;;;;;;;;;;5093216;28;20816;-77
2022/12/10 08:26:29;;;;;;;34.60;26.03;;;;;;;;;;5094232;28;20456;-76
2022/12/10 08:28:58;;;;;;;30.50;24.70;;;;;;;;;;5093665;28;20447;-77
2022/12/10 08:31:26;;;;;;;36.60;24.47;;;;;;;;;;5093819;28;20446;-79
2022/12/10 08:33:53;;;;;;;34.13;26.00;;;;;;;;;;5092841;28;20443;-77
2022/12/10 08:36:20;;;;;;;35.77;25.67;;;;;;;;;;5093016;28;20990;-77
2022/12/10 08:38:48;;;;;;;36.23;27.00;;;;;;;;;;5093589;28;20440;-76
2022/12/10 08:41:16;;;;;;;37.83;26.00;;;;;;;;;;5093239;28;20927;-76
2022/12/10 08:43:43;;;;;;;36.50;26.30;;;;;;;;;;5092652;28;20447;-76
2022/12/10 08:46:12;;;;;;;35.77;26.07;;;;;;;;;;5093124;28;20474;-77
2022/12/10 08:48:40;;;;;;;37.50;26.60;;;;;;;;;;5093493;28;20846;-76
2022/12/10 08:51:07;;;;;;;33.27;26.20;;;;;;;;;;5093909;28;20448;-77
2022/12/10 08:53:35;;;;;;;34.30;26.23;;;;;;;;;;5093234;28;20444;-75
2022/12/10 08:56:02;;;;;;;37.23;26.70;;;;;;;;;;5093790;28;20459;-77
2022/12/10 08:58:29;;;;;;;36.70;25.67;;;;;;;;;;5093467;28;20440;-76
2022/12/10 09:00:56;;;;;;;33.70;26.07;;;;;;;;;;5093427;28;20463;-76
2022/12/10 09:03:25;;;;;;;33.87;25.57;;;;;;;;;;5093146;28;20481;-76
2022/12/10 09:05:52;;;;;;;34.40;25.50;;;;;;;;;;5093426;28;20851;-75
2022/12/10 09:08:19;;;;;;;35.30;25.00;;;;;;;;;;5093178;28;20450;-76
2022/12/10 09:10:46;;;;;;;33.50;25.43;;;;;;;;;;5092611;28;20454;-75
2022/12/10 09:13:13;;;;;;;32.83;25.37;;;;;;;;;;5092331;28;20455;-76
2022/12/10 09:15:40;;;;;;;34.87;24.13;;;;;;;;;;5092259;28;20460;-75
2022/12/10 09:18:07;;;;;;;34.43;26.70;;;;;;;;;;5092825;28;20579;-75
2022/12/10 09:20:38;;;;;;;36.00;26.30;;;;;;;;;;5091455;28;20869;-77
2022/12/10 09:23:05;;;;;;;34.80;26.17;;;;;;;;;;5091909;28;20456;-77
2022/12/10 09:25:32;;;;;;;30.30;25.20;;;;;;;;;;5092596;28;20458;-75
2022/12/10 09:27:59;;;;;;;36.93;28.23;;;;;;;;;;5092780;28;20486;-76
2022/12/10 09:30:26;;;;;;;32.03;25.33;;;;;;;;;;5092487;28;20922;-76
2022/12/10 09:32:53;;;;;;;33.53;24.80;;;;;;;;;;5093646;28;20444;-78
2022/12/10 09:35:21;;;;;;;34.47;25.97;;;;;;;;;;5094116;28;20464;-75
2022/12/10 09:37:50;;;;;;;37.40;27.73;;;;;;;;;;5094602;28;20554;-74
2022/12/10 09:40:18;;;;;;;34.33;25.57;;;;;;;;;;5095008;28;20440;-76
2022/12/10 09:42:50;;;;;;;32.50;25.30;;;;;;;;;;5093660;28;20479;-76
2022/12/10 09:45:21;;;;;;;35.70;26.90;;;;;;;;;;5094523;28;20470;-75
2022/12/10 09:47:56;;;;;;;36.53;25.53;;;;;;;;;;5094038;28;20436;-76
2022/12/10 09:50:27;;;;;;;33.73;24.80;;;;;;;;;;5092769;28;20440;-77
2022/12/10 09:52:57;;;;;;;32.53;24.93;;;;;;;;;;5091485;28;20649;-77
2022/12/10 09:55:28;;;;;;;30.17;25.00;;;;;;;;;;5092346;28;20518;-75
2022/12/10 09:57:55;;;;;;;36.87;27.03;;;;;;;;;;5091937;28;20443;-75
2022/12/10 10:00:24;;;;;;;35.47;25.57;;;;;;;;;;5091210;28;20453;-76
2022/12/10 10:02:52;;;;;;;39.93;27.00;;;;;;;;;;5091260;28;20489;-79
2022/12/10 10:05:21;;;;;;;29.43;23.93;;;;;;;;;;5091402;28;20453;-76
2022/12/10 10:07:51;;;;;;;36.87;26.50;;;;;;;;;;5091402;28;20619;-77
2022/12/10 10:10:23;;;;;;;33.77;26.03;;;;;;;;;;5092061;28;20443;-77
2022/12/10 10:12:51;;;;;;;34.40;24.50;;;;;;;;;;5091516;28;20435;-76
2022/12/10 10:15:21;;;;;;;34.10;25.67;;;;;;;;;;5091777;28;20994;-76
2022/12/10 10:17:49;;;;;;;28.70;23.97;;;;;;;;;;5091265;28;20437;-75
2022/12/10 10:20:17;;;;;;;31.53;23.50;;;;;;;;;;5091159;28;20446;-74
2022/12/10 10:22:44;;;;;;;31.50;24.27;;;;;;;;;;5091099;28;20518;-77
2022/12/10 10:25:14;;;;;;;34.53;24.83;;;;;;;;;;5092266;28;20464;-75
2022/12/10 10:27:43;;;;;;;31.13;22.70;;;;;;;;;;5092532;28;20860;-76
2022/12/10 10:30:16;;;;;;;31.93;25.00;;;;;;;;;;5092241;28;20445;-76
2022/12/10 10:32:49;;;;;;;29.10;23.90;;;;;;;;;;5091192;28;20464;-77
2022/12/10 10:35:22;;;;;;;32.30;23.83;;;;;;;;;;5092288;28;20468;-77
2022/12/10 10:37:49;;;;;;;30.20;24.43;;;;;;;;;;5091484;28;20451;-76
2022/12/10 10:40:23;;;;;;;31.30;23.50;;;;;;;;;;5090859;28;20452;-76
2022/12/10 10:42:54;;;;;;;35.10;25.20;;;;;;;;;;5089280;28;20512;-77
2022/12/10 10:45:38;;;;;;;32.03;23.30;;;;;;;;;;5090762;28;20461;-76
2022/12/10 10:48:07;;;;;;;30.07;23.30;;;;;;;;;;5090764;28;20477;-75
2022/12/10 10:50:38;;;;;;;32.70;24.93;;;;;;;;;;5090662;28;20544;-76
2022/12/10 10:53:20;;;;;;;30.30;23.93;;;;;;;;;;5090045;28;20900;-75
2022/12/10 10:55:48;;;;;;;32.93;25.23;;;;;;;;;;5090784;28;20461;-76
2022/12/10 10:58:19;;;;;;;34.10;23.40;;;;;;;;;;5098682;28;20452;-77
2022/12/10 11:00:54;;;;;;;30.60;22.20;;;;;;;;;;5098760;28;20468;-76
2022/12/10 11:03:23;;;;;;;32.13;23.80;;;;;;;;;;5098246;28;20469;-76
2022/12/10 11:05:50;;;;;;;29.47;23.00;;;;;;;;;;5098740;28;20495;-77
2022/12/10 11:08:18;;;;;;;30.87;23.47;;;;;;;;;;5100376;28;20532;-76
2022/12/10 11:10:49;;;;;;;30.30;23.80;;;;;;;;;;5097331;28;20525;-77
2022/12/10 11:13:23;;;;;;;33.03;23.33;;;;;;;;;;5089889;28;20449;-77
2022/12/10 11:15:55;;;;;;;27.87;23.23;;;;;;;;;;5071982;28;20502;-76
2022/12/10 11:18:27;;;;;;;29.27;22.20;;;;;;;;;;5072496;28;20463;-75
2022/12/10 11:20:59;;;;;;;30.40;22.37;;;;;;;;;;5071638;28;20504;-76
2022/12/10 11:23:28;;;;;;;29.40;22.53;;;;;;;;;;5070771;28;20503;-76
2022/12/10 11:25:59;;;;;;;34.73;25.97;;;;;;;;;;5071673;28;20535;-75
2022/12/10 11:28:35;;;;;;;34.83;23.23;;;;;;;;;;5071347;28;20454;-76
2022/12/10 11:31:10;;;;;;;27.53;21.97;;;;;;;;;;5070772;28;20450;-76
2022/12/10 11:33:42;;;;;;;27.00;21.33;;;;;;;;;;5070202;28;20437;-76
2022/12/10 11:36:18;;;;;;;28.50;21.57;;;;;;;;;;5070399;28;20922;-76
2022/12/10 11:38:50;;;;;;;28.37;21.43;;;;;;;;;;5070293;28;20439;-75
2022/12/10 11:41:24;;;;;;;31.47;22.47;;;;;;;;;;5070082;28;20450;-74
2022/12/10 11:44:06;;;;;;;28.17;21.47;;;;;;;;;;5069181;28;20855;-74
2022/12/10 11:46:45;;;;;;;32.63;22.23;;;;;;;;;;5068551;28;20474;-74
2022/12/10 11:49:17;;;;;;;26.23;21.23;;;;;;;;;;5070100;28;20442;-76
2022/12/10 11:51:48;;;;;;;26.33;21.20;;;;;;;;;;5069782;28;20444;-76
2022/12/10 11:54:32;;;;;;;28.77;19.80;;;;;;;;;;5070768;28;20430;-76
2022/12/10 11:57:04;;;;;;;25.30;20.87;;;;;;;;;;5073765;28;20457;-75
2022/12/10 11:59:35;;;;;;;26.03;20.73;;;;;;;;;;5074101;28;20443;-75
2022/12/10 12:02:16;;;;;;;27.43;21.13;;;;;;;;;;5074232;28;20936;-76
2022/12/10 12:04:51;;;;;;;28.40;21.80;;;;;;;;;;5074492;28;20442;-78
2022/12/10 12:07:33;;;;;;;25.87;20.50;;;;;;;;;;5075161;28;20517;-76
2022/12/10 12:10:19;;;;;;;29.53;21.00;;;;;;;;;;5080618;28;20454;-75
2022/12/10 12:12:49;;;;;;;25.33;19.30;;;;;;;;;;5087502;28;20444;-74
2022/12/10 12:15:20;;;;;;;25.63;19.40;;;;;;;;;;5103012;28;20832;-76
2022/12/10 12:17:50;;;;;;;22.60;19.43;;;;;;;;;;5101094;28;20560;-76
2022/12/10 12:20:20;;;;;;;23.97;20.23;;;;;;;;;;5096243;28;20446;-75
2022/12/10 12:22:49;;;;;;;27.10;19.73;;;;;;;;;;5094939;28;20477;-76
2022/12/10 12:25:20;;;;;;;27.60;19.40;;;;;;;;;;5094104;28;20476;-76
2022/12/10 12:27:49;;;;;;;25.80;20.77;;;;;;;;;;5094590;28;21078;-75
2022/12/10 12:30:18;;;;;;;25.23;19.50;;;;;;;;;;5093625;28;20462;-75
2022/12/10 12:32:51;;;;;;;25.13;19.70;;;;;;;;;;5093278;28;20443;-74
2022/12/10 12:35:21;;;;;;;24.57;20.00;;;;;;;;;;5093715;28;20491;-77
2022/12/10 12:37:50;;;;;;;26.90;19.87;;;;;;;;;;5093923;28;20453;-77
2022/12/10 12:40:22;;;;;;;23.00;18.77;;;;;;;;;;5093514;28;20797;-76
2022/12/10 12:42:52;;;;;;;26.20;19.73;;;;;;;;;;5094254;28;20475;-77
2022/12/10 12:45:21;;;;;;;24.97;19.93;;;;;;;;;;5094086;28;20462;-76
2022/12/10 12:47:50;;;;;;;23.83;19.70;;;;;;;;;;5093181;28;20442;-76
2022/12/10 12:50:28;;;;;;;22.97;16.97;;;;;;;;;;5092689;28;20450;-75
2022/12/10 12:52:58;;;;;;;23.83;18.57;;;;;;;;;;5092379;28;20430;-75
2022/12/10 12:55:29;;;;;;;22.67;18.87;;;;;;;;;;5093064;28;20458;-76
2022/12/10 12:58:12;;;;;;;26.13;18.53;;;;;;;;;;5093025;28;20457;-75
2022/12/10 13:00:42;;;;;;;22.20;17.90;;;;;;;;;;5074780;28;20460;-75
2022/12/10 13:03:16;;;;;;;21.30;17.83;;;;;;;;;;5092324;28;20502;-78
2022/12/10 13:05:45;;;;;;;19.60;15.23;;;;;;;;;;5092174;28;20457;-75
2022/12/10 13:08:31;;;;;;;18.20;16.10;;;;;;;;;;5093022;28;20456;-75
2022/12/10 13:10:59;;;;;;;19.10;15.17;;;;;;;;;;5092574;28;20447;-75
2022/12/10 13:13:30;;;;;;;20.07;16.33;;;;;;;;;;5090024;28;20446;-75
2022/12/10 13:15:57;;;;;;;21.70;17.40;;;;;;;;;;5075450;28;20839;-76
2022/12/10 13:18:36;;;;;;;26.00;19.27;;;;;;;;;;5075582;28;20446;-75
2022/12/10 13:21:27;;;;;;;26.10;19.93;;;;;;;;;;5072616;28;20495;-74
2022/12/10 13:23:55;;;;;;;25.90;21.40;;;;;;;;;;5072665;28;20479;-76
2022/12/10 13:26:24;;;;;;;25.07;19.97;;;;;;;;;;5075413;28;20475;-76
2022/12/10 13:28:52;;;;;;;28.83;21.17;;;;;;;;;;5075524;28;20472;-76
2022/12/10 13:31:34;;;;;;;28.60;21.00;;;;;;;;;;5075313;28;20454;-77
2022/12/10 13:34:07;;;;;;;25.10;20.20;;;;;;;;;;5076063;28;20439;-75
2022/12/10 13:36:38;;;;;;;26.93;21.53;;;;;;;;;;5072990;28;20549;-76
2022/12/10 13:39:22;;;;;;;30.63;22.53;;;;;;;;;;5075212;28;20821;-76
2022/12/10 13:44:49;;;;;;;30.20;21.93;;;;;;;;;;5071628;28;20477;-76
2022/12/10 13:47:27;;;;;;;33.40;22.30;;;;;;;;;;5073837;28;20436;-77
2022/12/10 13:49:55;;;;;;;31.17;22.80;;;;;;;;;;5072786;28;20948;-75
2022/12/10 13:52:28;;;;;;;29.43;22.03;;;;;;;;;;5073674;28;20449;-75
2022/12/10 13:55:01;;;;;;;29.30;21.50;;;;;;;;;;5073731;28;20815;-76
2022/12/10 13:57:35;;;;;;;29.40;21.03;;;;;;;;;;5073046;28;20467;-75
2022/12/10 14:00:05;;;;;;;31.33;22.77;;;;;;;;;;5071538;28;20446;-74
2022/12/10 14:02:43;;;;;;;32.83;24.20;;;;;;;;;;5070814;28;20448;-76
2022/12/10 14:05:19;;;;;;;32.80;24.10;;;;;;;;;;5071044;28;20480;-76
2022/12/10 14:07:49;;;;;;;37.37;24.83;;;;;;;;;;5071695;28;20532;-76
2022/12/10 14:10:18;;;;;;;33.67;23.10;;;;;;;;;;5071290;28;20444;-76
2022/12/10 14:12:45;;;;;;;29.87;22.77;;;;;;;;;;5070447;28;20460;-75
2022/12/10 14:15:18;;;;;;;28.10;20.93;;;;;;;;;;5088307;28;20467;-75
2022/12/10 14:17:45;;;;;;;31.97;21.40;;;;;;;;;;5090224;28;20447;-76
2022/12/10 14:20:16;;;;;;;31.73;24.40;;;;;;;;;;5091632;28;20452;-74
2022/12/10 14:22:46;;;;;;;28.13;21.80;;;;;;;;;;5090879;28;20440;-76
2022/12/10 14:25:17;;;;;;;28.30;22.63;;;;;;;;;;5091128;28;20482;-75
2022/12/10 14:27:45;;;;;;;31.40;23.20;;;;;;;;;;5091149;28;20979;-76
2022/12/10 14:30:17;;;;;;;30.37;21.17;;;;;;;;;;5091058;28;20470;-77
2022/12/10 14:32:44;;;;;;;29.03;21.87;;;;;;;;;;5090525;28;20450;-75
2022/12/10 14:35:14;;;;;;;28.00;20.80;;;;;;;;;;5090740;28;20602;-76
2022/12/10 14:37:42;;;;;;;30.03;22.00;;;;;;;;;;5090781;28;20447;-76
2022/12/10 14:40:10;;;;;;;27.90;21.47;;;;;;;;;;5090734;28;20447;-75
2022/12/10 14:42:40;;;;;;;31.37;21.33;;;;;;;;;;5090022;28;20802;-78